Time;durP1;ratioP1;P1;durP2;ratioP2;P2;SDS_P1;SDS_P2;PMS_P1;PMS_P2;Temp;Humidity;BMP_temperature;BMP_pressure;BME280_temperature;BME280_humidity;BME280_pressure;Samples;Min_cycle;Max_cycle;Signal;HPM_P1;HPM_P2
2021/08/12 00:00:11;;;;;;;5.82;5.53;;;;;;;16.30;89.02;101507.87;4423808;32;20071;-66
2021/08/12 00:02:36;;;;;;;5.85;5.57;;;;;;;16.28;88.54;101506.28;4428965;32;20072;-67
2021/08/12 00:05:08;;;;;;;6.28;5.97;;;;;;;16.04;89.59;101484.84;4412205;32;20471;-66
2021/08/12 00:07:33;;;;;;;5.68;5.37;;;;;;;16.19;88.74;101509.50;4424201;32;20072;-68
2021/08/12 00:10:00;;;;;;;5.12;4.82;;;;;;;16.14;88.96;101501.84;4430478;32;20904;-66
2021/08/12 00:12:26;;;;;;;5.47;5.18;;;;;;;16.12;88.90;101503.75;4418608;32;20180;-67
2021/08/12 00:14:51;;;;;;;6.90;6.60;;;;;;;15.96;88.54;101498.56;4416060;32;20094;-67
2021/08/12 00:17:17;;;;;;;5.37;5.12;;;;;;;15.84;87.96;101500.16;4434440;32;20079;-67
2021/08/12 00:19:42;;;;;;;5.35;5.10;;;;;;;15.75;89.08;101504.22;4423767;32;20156;-67
2021/08/12 00:22:07;;;;;;;5.32;5.00;;;;;;;15.75;89.33;101512.16;4413843;32;20072;-67
2021/08/12 00:24:33;;;;;;;5.82;5.53;;;;;;;14.51;89.23;101322.09;4431621;32;20087;-67
2021/08/12 00:27:00;;;;;;;5.50;5.20;;;;;;;15.74;89.15;101512.25;4430375;32;20071;-66
2021/08/12 00:29:25;;;;;;;5.20;5.00;;;;;;;15.75;89.64;101509.53;4434088;32;20099;-67
2021/08/12 00:31:51;;;;;;;7.87;7.47;;;;;;;15.71;89.81;101513.25;4426061;32;20696;-67
2021/08/12 00:34:16;;;;;;;5.57;5.32;;;;;;;15.64;89.37;101516.38;4429251;32;20072;-66
2021/08/12 00:36:41;;;;;;;5.05;4.85;;;;;;;15.56;89.24;101512.38;4430578;32;20071;-67
2021/08/12 00:39:07;;;;;;;5.60;5.37;;;;;;;15.56;89.32;101514.19;4414668;32;20149;-66
2021/08/12 00:41:35;;;;;;;5.07;4.87;;;;;;;15.21;91.28;101476.59;4430792;32;20546;-66
2021/08/12 00:44:01;;;;;;;5.12;4.93;;;;;;;15.48;90.99;101506.72;4421066;32;20618;-67
2021/08/12 00:46:26;;;;;;;5.68;5.40;;;;;;;15.50;91.73;101510.12;4425936;32;20462;-67
2021/08/12 00:48:52;;;;;;;5.47;5.28;;;;;;;15.46;91.23;101498.00;4421036;32;20079;-66
2021/08/12 00:51:17;;;;;;;5.40;5.20;;;;;;;15.45;91.67;101506.88;4405362;32;20072;-66
2021/08/12 00:53:42;;;;;;;5.50;5.20;;;;;;;15.43;91.34;101502.62;4420298;32;20071;-66
2021/08/12 00:56:08;;;;;;;5.50;5.25;;;;;;;15.42;92.37;101506.22;4421610;32;20147;-66
2021/08/12 00:58:36;;;;;;;5.00;4.80;;;;;;;15.38;92.15;101507.38;4416368;32;20112;-68
2021/08/12 01:01:02;;;;;;;5.43;5.12;;;;;;;15.32;92.94;101504.13;4413927;32;20088;-67
2021/08/12 01:03:27;;;;;;;5.20;5.00;;;;;;;15.33;92.05;101507.63;4415482;32;20145;-66
2021/08/12 01:05:53;;;;;;;6.37;6.07;;;;;;;15.31;91.94;101505.06;4402983;32;20415;-67
2021/08/12 01:08:33;;;;;;;5.20;4.95;;;;;;;15.31;92.64;101514.78;4416819;32;20301;-67
2021/08/12 01:11:21;;;;;;;4.90;4.70;;;;;;;15.32;92.86;101511.22;4418559;32;20060;-67
2021/08/12 01:13:59;;;;;;;5.62;5.25;;;;;;;15.35;92.95;101516.31;4427864;32;20073;-67
2021/08/12 01:16:27;;;;;;;5.30;5.10;;;;;;;15.33;92.37;101513.78;4428933;32;20075;-67
2021/08/12 01:19:34;;;;;;;5.57;5.28;;;;;;;15.32;91.82;101512.06;4412085;32;20836;-66
2021/08/12 01:22:04;;;;;;;6.37;6.07;;;;;;;14.95;91.90;101471.06;4418705;32;20901;-66
2021/08/12 01:24:32;;;;;;;5.72;5.30;;;;;;;15.20;92.17;101512.78;4419745;32;20090;-66
2021/08/12 01:27:00;;;;;;;5.72;5.43;;;;;;;15.08;92.65;101514.34;4416306;32;20134;-67
2021/08/12 01:29:55;;;;;;;5.20;5.00;;;;;;;15.19;92.84;101504.94;4405040;32;20491;-66
2021/08/12 01:32:25;;;;;;;5.10;4.90;;;;;;;15.19;92.61;101503.12;4422761;32;20069;-67
2021/08/12 01:35:09;;;;;;;6.65;6.35;;;;;;;13.93;92.49;101299.91;4421944;32;20080;-66
2021/08/12 01:37:37;;;;;;;5.50;5.15;;;;;;;15.09;92.76;101500.16;4421010;32;20090;-68
2021/08/12 01:40:03;;;;;;;6.43;6.12;;;;;;;13.99;92.55;101342.72;4402053;32;20087;-67
2021/08/12 01:42:29;;;;;;;5.60;5.30;;;;;;;14.94;92.45;101540.72;4421393;32;20668;-67
2021/08/12 01:45:33;;;;;;;5.50;5.20;;;;;;;14.90;92.18;101497.75;4410925;32;20098;-67
2021/08/12 01:48:07;;;;;;;5.60;5.30;;;;;;;14.89;92.82;101508.41;4387330;32;20088;-68
2021/08/12 01:50:33;;;;;;;5.43;5.12;;;;;;;14.88;92.29;101501.44;4439241;32;20082;-67
2021/08/12 01:53:02;;;;;;;5.40;5.20;;;;;;;13.58;92.24;101286.03;4415195;32;20080;-67
2021/08/12 01:55:57;;;;;;;5.30;5.10;;;;;;;14.90;92.86;101499.56;4435193;32;20068;-67
2021/08/12 01:58:43;;;;;;;5.20;5.00;;;;;;;14.93;92.45;101507.28;4431045;32;20997;-67
2021/08/12 02:01:08;;;;;;;5.20;5.00;;;;;;;14.84;92.63;101492.84;4437250;32;20702;-67
2021/08/12 02:06:02;;;;;;;5.45;5.15;;;;;;;15.02;93.06;101508.56;4459877;26;20123;-71
2021/08/12 02:08:27;;;;;;;5.12;4.93;;;;;;;15.06;93.21;101510.94;4408872;32;20649;-71
2021/08/12 02:10:52;;;;;;;5.60;5.30;;;;;;;15.10;93.07;101508.97;4412347;32;20325;-71
2021/08/12 02:13:18;;;;;;;6.05;5.70;;;;;;;15.11;93.73;101500.97;4411699;32;20095;-71
2021/08/12 02:15:43;;;;;;;6.65;6.35;;;;;;;15.16;93.49;101501.53;4408111;32;20091;-71
2021/08/12 02:18:09;;;;;;;5.50;5.22;;;;;;;15.20;93.34;101502.22;4420407;32;20212;-71
2021/08/12 02:20:34;;;;;;;5.22;5.03;;;;;;;15.18;92.76;101497.97;4409968;32;20072;-71
2021/08/12 02:23:10;;;;;;;4.80;4.60;;;;;;;14.84;93.19;101444.41;4418037;32;21001;-71
2021/08/12 02:25:46;;;;;;;5.78;5.55;;;;;;;15.08;92.85;101481.78;4435304;32;20072;-70
2021/08/12 02:28:11;;;;;;;5.50;5.20;;;;;;;15.04;92.63;101483.75;4427361;32;20088;-71
2021/08/12 02:30:39;;;;;;;5.95;5.68;;;;;;;15.02;93.27;101490.91;4420535;32;20134;-71
2021/08/12 02:33:04;;;;;;;5.28;5.00;;;;;;;15.00;92.34;101498.09;4420613;32;20086;-71
2021/08/12 02:35:30;;;;;;;5.68;5.35;;;;;;;15.02;92.75;101498.00;4418446;32;20086;-71
2021/08/12 02:37:58;;;;;;;5.80;5.50;;;;;;;15.01;92.83;101498.94;4416183;32;20069;-71
2021/08/12 02:40:23;;;;;;;5.10;4.90;;;;;;;15.02;92.60;101498.00;4416412;32;20073;-71
2021/08/12 02:42:48;;;;;;;6.93;6.62;;;;;;;15.00;93.00;101500.72;4416129;32;20661;-71
2021/08/12 02:45:16;;;;;;;5.40;5.10;;;;;;;14.97;93.31;101500.88;4420789;32;20088;-71
2021/08/12 02:47:41;;;;;;;5.35;5.05;;;;;;;14.96;93.61;101484.19;4420158;32;20080;-71
2021/08/12 02:50:07;;;;;;;5.32;5.03;;;;;;;14.98;93.02;101492.03;4417517;32;20080;-71
2021/08/12 02:52:33;;;;;;;5.30;5.10;;;;;;;15.00;93.36;101487.50;4418725;32;20095;-71
2021/08/12 02:54:58;;;;;;;5.47;5.18;;;;;;;15.00;93.04;101489.31;4415474;32;20845;-71
2021/08/12 02:57:24;;;;;;;5.10;4.80;;;;;;;14.93;93.80;101494.09;4415533;32;20060;-72
2021/08/12 02:59:49;;;;;;;5.20;4.93;;;;;;;14.85;92.40;101486.59;4424554;32;20466;-69
2021/08/12 03:02:18;;;;;;;4.93;4.72;;;;;;;14.78;92.48;101484.41;4404550;32;20574;-69
2021/08/12 03:04:43;;;;;;;6.97;6.57;;;;;;;14.65;92.27;101471.88;4420782;32;20622;-70
2021/08/12 03:07:09;;;;;;;5.68;5.32;;;;;;;14.21;92.22;101393.34;4419967;32;20072;-70
2021/08/12 03:09:34;;;;;;;5.55;5.25;;;;;;;14.70;92.33;101487.50;4421480;32;20146;-70
2021/08/12 03:12:00;;;;;;;5.10;4.90;;;;;;;14.70;92.01;101492.78;4412345;32;20668;-69
2021/08/12 03:14:26;;;;;;;5.53;5.22;;;;;;;14.67;92.95;101485.88;4413511;32;20088;-69
2021/08/12 03:16:51;;;;;;;5.15;4.95;;;;;;;14.67;92.64;101485.00;4405640;32;20436;-69
2021/08/12 03:19:17;;;;;;;5.20;5.00;;;;;;;14.69;92.50;101480.47;4413751;32;20610;-69
2021/08/12 03:22:04;;;;;;;4.93;4.72;;;;;;;14.69;92.94;101477.84;4406211;32;20096;-69
2021/08/12 03:24:35;;;;;;;4.97;4.78;;;;;;;14.70;92.37;101485.69;4407785;32;20125;-70
2021/08/12 03:27:00;;;;;;;5.68;5.37;;;;;;;14.68;92.99;101489.38;4411321;32;21806;-69
2021/08/12 03:29:26;;;;;;;5.50;5.10;;;;;;;14.67;93.04;101487.66;4421367;32;20368;-70
2021/08/12 03:31:51;;;;;;;5.47;5.18;;;;;;;14.69;92.63;101497.22;4424046;32;20111;-70
2021/08/12 03:34:17;;;;;;;5.00;4.80;;;;;;;14.72;93.45;101497.03;4406748;32;20084;-70
2021/08/12 03:36:42;;;;;;;7.40;7.00;;;;;;;14.74;93.04;101504.87;4415180;32;20636;-68
2021/08/12 03:39:07;;;;;;;4.90;4.70;;;;;;;14.75;93.00;101498.63;4415739;32;20092;-70
2021/08/12 03:41:33;;;;;;;5.55;5.25;;;;;;;14.76;93.48;101503.84;4417775;32;20069;-70
2021/08/12 03:43:58;;;;;;;5.10;4.90;;;;;;;14.80;93.15;101508.97;4416146;32;22026;-70
2021/08/12 03:46:23;;;;;;;4.90;4.70;;;;;;;14.71;92.70;101486.53;4418211;32;20073;-69
2021/08/12 03:48:49;;;;;;;7.37;7.00;;;;;;;14.90;92.85;101507.50;4393253;32;20077;-70
2021/08/12 03:51:14;;;;;;;5.10;4.90;;;;;;;14.96;93.14;101504.50;4420035;32;20449;-70
2021/08/12 03:53:39;;;;;;;5.25;5.05;;;;;;;15.01;93.46;101515.63;4406788;32;20072;-69
2021/08/12 03:56:05;;;;;;;5.10;4.90;;;;;;;15.02;92.91;101508.56;4417009;32;20077;-70
2021/08/12 03:58:32;;;;;;;4.80;4.60;;;;;;;15.02;92.97;101509.41;4403768;32;20083;-70
2021/08/12 04:00:57;;;;;;;5.35;5.15;;;;;;;14.98;93.49;101507.06;4418997;32;20076;-70
2021/08/12 04:03:23;;;;;;;5.12;4.93;;;;;;;14.97;93.52;101506.19;4405310;32;20076;-72
2021/08/12 04:05:48;;;;;;;6.70;6.40;;;;;;;14.95;93.45;101508.06;4418299;32;20072;-72
2021/08/12 04:08:13;;;;;;;6.90;5.10;;;;;;;14.96;93.86;101501.84;4410374;32;20570;-70
2021/08/12 04:10:39;;;;;;;6.62;6.32;;;;;;;14.96;93.79;101504.50;4421436;32;20072;-71
2021/08/12 04:13:04;;;;;;;4.90;4.70;;;;;;;14.92;93.00;101492.41;4417656;32;20072;-72
2021/08/12 04:15:30;;;;;;;5.32;5.03;;;;;;;14.90;93.85;101489.00;4419741;32;20423;-70
2021/08/12 04:17:55;;;;;;;5.85;5.50;;;;;;;14.75;93.79;101467.78;4411609;32;20558;-69
2021/08/12 04:20:20;;;;;;;5.18;4.87;;;;;;;14.91;93.68;101490.66;4422885;32;20114;-70
2021/08/12 04:22:46;;;;;;;7.45;7.05;;;;;;;14.92;93.67;101505.59;4407172;32;20080;-71
2021/08/12 04:25:12;;;;;;;5.12;4.93;;;;;;;14.92;93.62;101498.53;4419150;32;20065;-71
2021/08/12 04:27:38;;;;;;;5.37;5.10;;;;;;;14.85;93.38;101480.47;4421616;32;20068;-72
2021/08/12 04:30:05;;;;;;;5.00;4.80;;;;;;;14.93;93.72;101499.38;4409936;32;20625;-72
2021/08/12 04:32:30;;;;;;;5.25;5.05;;;;;;;15.00;93.04;101499.88;4416514;32;20924;-72
2021/08/12 04:34:55;;;;;;;4.95;4.75;;;;;;;15.02;93.16;101508.56;4403730;32;20449;-72
2021/08/12 04:37:21;;;;;;;5.25;5.05;;;;;;;15.02;92.79;101513.88;4419361;32;20668;-72
2021/08/12 04:39:46;;;;;;;6.78;6.47;;;;;;;15.00;93.14;101515.75;4414007;32;20068;-69
2021/08/12 04:42:11;;;;;;;5.50;5.20;;;;;;;14.96;93.36;101512.41;4421031;32;20081;-73
2021/08/12 04:44:37;;;;;;;6.03;5.75;;;;;;;14.88;92.34;101517.28;4421197;32;20554;-70
2021/08/12 04:47:02;;;;;;;4.90;4.70;;;;;;;14.71;92.48;101500.63;4399630;32;20069;-70
2021/08/12 04:49:27;;;;;;;5.20;4.85;;;;;;;14.79;92.94;101509.88;4406680;32;20076;-70
2021/08/12 04:51:53;;;;;;;5.50;5.20;;;;;;;14.76;93.00;101503.84;4401889;32;20077;-71
2021/08/12 04:54:19;;;;;;;5.28;5.07;;;;;;;14.73;92.62;101517.22;4413748;32;20566;-71
2021/08/12 04:56:44;;;;;;;6.70;6.40;;;;;;;14.71;92.87;101519.13;4397025;32;20084;-72
2021/08/12 04:59:09;;;;;;;5.20;5.00;;;;;;;14.72;93.07;101512.88;4418638;32;20068;-73
2021/08/12 05:01:35;;;;;;;4.90;4.70;;;;;;;14.55;93.52;101490.03;4420230;32;20149;-73
2021/08/12 05:04:00;;;;;;;5.53;5.22;;;;;;;14.74;92.69;101518.06;4410738;32;20084;-72
2021/08/12 05:06:25;;;;;;;4.93;4.72;;;;;;;14.75;92.96;101517.12;4417145;32;20423;-70
2021/08/12 05:08:51;;;;;;;6.70;6.40;;;;;;;14.61;92.93;101498.56;4410094;32;20614;-73
2021/08/12 05:11:16;;;;;;;5.47;5.18;;;;;;;14.69;92.85;101518.34;4413526;32;20143;-72
2021/08/12 05:13:41;;;;;;;5.65;5.18;;;;;;;14.92;93.04;101526.75;4414720;32;20084;-74
2021/08/12 05:16:07;;;;;;;5.35;5.10;;;;;;;14.94;92.89;101472.00;4414373;32;20088;-70
2021/08/12 05:18:32;;;;;;;5.75;5.35;;;;;;;15.49;92.11;101518.13;4415714;32;20139;-70
2021/08/12 05:20:58;;;;;;;4.70;4.50;;;;;;;15.72;90.64;101525.56;4414976;32;20120;-74
2021/08/12 05:23:24;;;;;;;4.80;4.60;;;;;;;16.05;90.90;101526.25;4418937;32;20155;-73
2021/08/12 05:25:49;;;;;;;5.85;5.45;;;;;;;16.32;88.86;101528.97;4423094;32;20448;-74
2021/08/12 05:28:14;;;;;;;5.07;4.87;;;;;;;16.57;86.76;101530.91;4416288;32;20550;-73
2021/08/12 05:30:40;;;;;;;5.15;4.95;;;;;;;16.53;85.99;101527.59;4395992;32;20091;-73
2021/08/12 05:33:05;;;;;;;5.37;5.10;;;;;;;16.30;84.47;101534.38;4418152;32;20077;-72
2021/08/12 05:35:30;;;;;;;5.10;4.90;;;;;;;15.23;85.62;101359.22;4409474;32;20314;-73
2021/08/12 05:37:56;;;;;;;5.20;5.00;;;;;;;16.56;84.67;101531.87;4416443;32;20084;-73
2021/08/12 05:40:21;;;;;;;5.20;5.00;;;;;;;17.00;83.32;101538.75;4420596;32;20085;-73
2021/08/12 05:42:47;;;;;;;6.37;6.07;;;;;;;17.63;83.04;101536.34;4412951;32;20125;-73
2021/08/12 05:45:12;;;;;;;5.68;5.37;;;;;;;18.04;81.08;101527.31;4409912;32;20084;-72
2021/08/12 05:47:37;;;;;;;4.97;4.78;;;;;;;18.28;80.47;101538.87;4419027;32;20527;-74
2021/08/12 05:50:03;;;;;;;5.43;5.18;;;;;;;18.62;78.40;101528.47;4423083;32;20083;-72
2021/08/12 05:52:28;;;;;;;5.62;5.37;;;;;;;19.15;77.44;101524.63;4401753;32;20083;-73
2021/08/12 05:54:54;;;;;;;6.30;5.90;;;;;;;19.72;75.99;101527.34;4425899;32;20069;-72
2021/08/12 05:57:19;;;;;;;6.37;5.87;;;;;;;19.38;75.27;101522.88;4421583;32;20073;-72
2021/08/12 05:59:44;;;;;;;7.20;6.87;;;;;;;18.38;75.68;101471.75;4415387;32;20794;-68
2021/08/12 06:02:10;;;;;;;5.80;5.40;;;;;;;18.55;77.61;101519.22;4428336;32;20065;-74
2021/08/12 06:04:35;;;;;;;6.22;5.90;;;;;;;18.29;77.79;101523.78;4423184;32;20095;-72
2021/08/12 06:07:01;;;;;;;6.62;6.18;;;;;;;18.03;79.07;101499.06;4422617;32;20137;-73
2021/08/12 06:09:26;;;;;;;5.80;5.50;;;;;;;18.22;80.24;101519.84;4401233;32;20139;-73
2021/08/12 06:11:51;;;;;;;6.30;5.70;;;;;;;18.45;79.83;101526.19;4423324;32;20575;-73
2021/08/12 06:14:17;;;;;;;5.90;5.60;;;;;;;18.53;79.72;101519.34;4407148;32;20073;-72
2021/08/12 06:16:42;;;;;;;8.07;7.57;;;;;;;18.56;80.45;101512.94;4416471;32;20083;-75
2021/08/12 06:19:07;;;;;;;5.95;5.55;;;;;;;18.57;80.08;101517.31;4397304;32;20696;-73
2021/08/12 06:21:33;;;;;;;5.90;5.60;;;;;;;18.58;79.96;101494.22;4406661;32;20452;-72
2021/08/12 06:23:58;;;;;;;6.25;5.75;;;;;;;18.80;80.92;101522.78;4405908;32;20068;-69
2021/08/12 06:26:23;;;;;;;5.85;5.50;;;;;;;18.99;80.56;101524.94;4423280;32;20403;-74
2021/08/12 06:28:50;;;;;;;7.60;7.20;;;;;;;19.09;79.44;101516.13;4420498;32;20083;-71
2021/08/12 06:31:15;;;;;;;6.50;6.10;;;;;;;19.16;78.74;101523.66;4416458;32;20176;-71
2021/08/12 06:33:41;;;;;;;6.62;6.32;;;;;;;19.18;79.09;101525.22;4392085;32;20068;-76
2021/08/12 06:36:06;;;;;;;5.85;5.55;;;;;;;19.11;78.93;101513.38;4416306;32;20145;-74
2021/08/12 06:38:31;;;;;;;6.10;5.53;;;;;;;19.26;79.16;101520.19;4420131;32;20084;-75
2021/08/12 06:40:57;;;;;;;5.68;5.37;;;;;;;19.42;78.53;101519.84;4419784;32;20076;-74
2021/08/12 06:43:22;;;;;;;6.15;5.80;;;;;;;19.32;77.50;101476.28;4408791;32;20784;-74
2021/08/12 06:45:47;;;;;;;7.40;6.95;;;;;;;19.79;77.85;101522.38;4406876;32;20125;-75
2021/08/12 06:48:13;;;;;;;5.82;5.53;;;;;;;20.07;76.10;101521.06;4406754;32;20072;-75
2021/08/12 06:50:38;;;;;;;7.20;6.80;;;;;;;20.31;75.60;101520.91;4404412;32;20085;-71
2021/08/12 06:53:04;;;;;;;5.80;5.50;;;;;;;20.28;75.11;101525.63;4418530;32;20061;-70
2021/08/12 06:55:32;;;;;;;5.87;5.57;;;;;;;20.60;74.85;101516.88;4422663;32;20076;-74
2021/08/12 06:57:58;;;;;;;6.80;5.90;;;;;;;20.83;73.16;101520.34;4418435;32;20083;-73
2021/08/12 07:00:23;;;;;;;6.12;5.80;;;;;;;20.51;73.61;101513.97;4420272;32;20068;-73
2021/08/12 07:02:49;;;;;;;6.43;6.12;;;;;;;20.63;73.67;101512.16;4424334;32;20073;-75
2021/08/12 07:05:14;;;;;;;6.47;5.97;;;;;;;20.14;73.55;101470.78;4420767;32;20175;-75
2021/08/12 07:07:39;;;;;;;7.03;6.62;;;;;;;20.30;74.62;101513.88;4422225;32;20114;-75
2021/08/12 07:10:05;;;;;;;6.28;5.97;;;;;;;20.24;74.89;101517.03;4421996;32;20071;-73
2021/08/12 07:12:30;;;;;;;6.20;5.72;;;;;;;20.47;74.69;101514.34;4410348;32;20122;-73
2021/08/12 07:14:56;;;;;;;5.97;5.68;;;;;;;20.52;74.46;101512.13;4401103;32;20083;-73
2021/08/12 07:17:21;;;;;;;5.87;5.60;;;;;;;20.28;74.60;101501.66;4406961;32;20082;-74
2021/08/12 07:19:47;;;;;;;6.20;5.80;;;;;;;20.47;74.07;101507.19;4407496;32;20672;-73
2021/08/12 07:22:12;;;;;;;6.40;6.00;;;;;;;20.28;74.10;101465.16;4407350;32;20087;-72
2021/08/12 07:24:37;;;;;;;7.30;6.87;;;;;;;20.43;73.62;101505.75;4405755;32;20158;-72
2021/08/12 07:27:03;;;;;;;6.60;6.22;;;;;;;19.80;74.80;101425.50;4417370;32;20119;-72
2021/08/12 07:29:28;;;;;;;6.90;6.47;;;;;;;20.40;75.53;101513.12;4421609;32;20065;-72
2021/08/12 07:31:54;;;;;;;6.80;6.40;;;;;;;20.63;74.74;101521.97;4400238;32;20868;-73
2021/08/12 07:34:19;;;;;;;6.85;6.47;;;;;;;20.30;74.76;101460.56;4406894;32;20068;-72
2021/08/12 07:36:46;;;;;;;8.38;7.93;;;;;;;20.85;73.65;101527.25;4415558;32;20091;-72
2021/08/12 07:39:12;;;;;;;6.62;6.12;;;;;;;20.83;72.49;101454.50;4418205;32;20090;-72
2021/08/12 07:41:37;;;;;;;7.03;6.62;;;;;;;20.36;71.32;101378.41;4416579;32;20072;-72
2021/08/12 07:44:03;;;;;;;6.70;6.30;;;;;;;21.37;71.12;101529.16;4415365;32;20570;-72
2021/08/12 07:46:29;;;;;;;6.35;5.95;;;;;;;21.41;70.60;101527.94;4409663;32;20072;-72
2021/08/12 07:48:54;;;;;;;6.90;6.53;;;;;;;21.32;70.90;101511.72;4402484;32;20080;-73
2021/08/12 07:51:23;;;;;;;8.68;8.07;;;;;;;21.50;70.12;101511.16;4423327;32;20061;-73
2021/08/12 07:53:49;;;;;;;8.68;8.18;;;;;;;21.26;70.00;101516.75;4405123;32;20087;-73
2021/08/12 07:56:14;;;;;;;6.80;6.20;;;;;;;21.43;71.23;101526.88;4418850;32;20319;-72
2021/08/12 07:58:40;;;;;;;7.40;7.00;;;;;;;21.38;69.93;101521.03;4405533;32;20719;-73
2021/08/12 08:01:05;;;;;;;6.32;5.97;;;;;;;21.56;69.97;101529.34;4422771;32;20088;-73
2021/08/12 08:03:30;;;;;;;6.28;5.78;;;;;;;21.95;68.26;101529.56;4408235;32;20088;-73
2021/08/12 08:05:57;;;;;;;6.40;6.00;;;;;;;22.08;67.70;101534.66;4415614;32;20091;-72
2021/08/12 08:08:22;;;;;;;6.62;6.22;;;;;;;22.16;66.34;101526.81;4413183;32;20083;-72
2021/08/12 08:10:48;;;;;;;8.00;7.47;;;;;;;21.93;67.65;101507.47;4417843;32;20077;-73
2021/08/12 08:13:13;;;;;;;6.32;6.00;;;;;;;22.00;68.42;101526.47;4422183;32;20693;-74
2021/08/12 08:15:39;;;;;;;8.30;7.68;;;;;;;22.14;67.86;101527.94;4418811;32;20187;-73
2021/08/12 08:18:04;;;;;;;6.22;5.82;;;;;;;22.40;67.05;101533.69;4421049;32;20131;-72
2021/08/12 08:20:30;;;;;;;6.82;6.25;;;;;;;22.57;66.80;101534.81;4418468;32;20084;-72
2021/08/12 08:22:59;;;;;;;7.57;6.87;;;;;;;22.50;66.38;101534.53;4419089;32;20083;-73
2021/08/12 08:25:24;;;;;;;6.15;5.85;;;;;;;22.27;66.97;101528.56;4420986;32;20083;-72
2021/08/12 08:27:50;;;;;;;6.82;6.43;;;;;;;22.21;67.25;101539.75;4419697;32;20076;-73
2021/08/12 08:30:19;;;;;;;6.97;6.35;;;;;;;21.97;68.27;101546.31;4416911;32;20126;-73
2021/08/12 08:32:44;;;;;;;9.88;8.98;;;;;;;22.09;67.84;101542.56;4402935;32;20061;-72
2021/08/12 08:35:09;;;;;;;6.60;6.20;;;;;;;22.21;68.07;101545.09;4423303;32;20099;-73
2021/08/12 08:37:35;;;;;;;6.70;6.22;;;;;;;22.33;67.25;101532.50;4417315;32;20064;-73
2021/08/12 08:40:00;;;;;;;6.07;5.68;;;;;;;22.54;66.81;101540.47;4398468;32;20289;-72
2021/08/12 08:42:26;;;;;;;6.43;6.00;;;;;;;22.75;66.00;101537.66;4422719;32;20129;-72
2021/08/12 08:44:51;;;;;;;6.45;6.05;;;;;;;22.64;65.30;101526.13;4404204;32;20208;-73
2021/08/12 08:47:17;;;;;;;6.45;6.05;;;;;;;23.03;63.18;101546.72;4403560;32;20904;-75
2021/08/12 08:49:42;;;;;;;8.05;7.43;;;;;;;22.77;62.94;101508.94;4418183;32;20089;-73
2021/08/12 08:52:11;;;;;;;8.07;7.57;;;;;;;23.14;63.02;101541.25;4420147;32;20213;-73
2021/08/12 08:54:37;;;;;;;6.85;6.37;;;;;;;23.26;63.83;101545.47;4417507;32;20119;-74
2021/08/12 08:57:04;;;;;;;6.65;6.25;;;;;;;23.67;60.85;101542.56;4403871;32;20090;-73
2021/08/12 08:59:29;;;;;;;6.82;6.22;;;;;;;23.86;60.50;101537.19;4417487;32;20092;-74
2021/08/12 09:01:54;;;;;;;7.25;6.85;;;;;;;23.50;58.38;101541.50;4395810;32;20084;-72
2021/08/12 09:04:20;;;;;;;6.68;6.28;;;;;;;23.71;58.55;101538.59;4415379;32;20073;-72
2021/08/12 09:06:45;;;;;;;9.55;7.37;;;;;;;23.94;60.24;101539.13;4403030;32;20157;-72
2021/08/12 09:09:10;;;;;;;6.75;6.25;;;;;;;23.73;58.57;101528.59;4418053;32;20079;-74
2021/08/12 09:11:36;;;;;;;7.50;7.07;;;;;;;23.67;60.71;101542.56;4410607;32;20060;-73
2021/08/12 09:14:32;;;;;;;6.95;6.50;;;;;;;23.52;59.21;101472.53;4399092;32;20869;-72
2021/08/12 09:16:58;;;;;;;7.03;6.62;;;;;;;23.75;60.04;101549.88;4416679;32;20100;-73
2021/08/12 09:19:24;;;;;;;7.07;6.57;;;;;;;23.25;60.83;101557.19;4405693;32;20142;-72
2021/08/12 09:21:56;;;;;;;6.55;6.15;;;;;;;23.32;61.67;101537.88;4406909;32;20471;-73
2021/08/12 09:24:22;;;;;;;6.60;6.20;;;;;;;23.69;60.29;101529.88;4404046;32;20080;-73
2021/08/12 09:26:47;;;;;;;8.68;8.18;;;;;;;24.00;60.60;101543.06;4413260;32;20483;-72
2021/08/12 09:29:29;;;;;;;6.20;5.90;;;;;;;24.14;59.07;101544.44;4406950;32;20077;-72
2021/08/12 09:31:59;;;;;;;7.03;6.62;;;;;;;24.20;58.70;101543.84;4407929;32;20423;-72
2021/08/12 09:34:24;;;;;;;6.85;6.40;;;;;;;24.13;59.40;101540.03;4416703;32;20207;-72
2021/08/12 09:37:02;;;;;;;8.55;8.00;;;;;;;24.33;58.24;101538.09;4406159;32;20092;-73
2021/08/12 09:39:29;;;;;;;6.12;5.78;;;;;;;24.24;56.65;101529.97;4399960;32;20167;-73
2021/08/12 09:41:55;;;;;;;7.78;7.15;;;;;;;24.02;58.10;101533.03;4387835;32;20211;-73
2021/08/12 09:44:43;;;;;;;6.95;6.45;;;;;;;23.98;58.10;101489.59;4404683;32;20076;-72
2021/08/12 09:47:13;;;;;;;6.10;5.80;;;;;;;24.27;57.87;101526.13;4408442;32;20070;-73
2021/08/12 09:49:52;;;;;;;7.40;6.95;;;;;;;24.48;57.71;101523.19;4407393;32;20057;-73
2021/08/12 09:52:20;;;;;;;6.85;6.22;;;;;;;24.46;56.31;101525.19;4410613;32;20441;-73
2021/08/12 09:54:45;;;;;;;8.05;7.60;;;;;;;24.55;56.56;101520.78;4428510;32;20157;-73
2021/08/12 09:57:17;;;;;;;6.47;5.97;;;;;;;24.49;55.79;101530.25;4410941;32;20159;-73
2021/08/12 09:59:48;;;;;;;7.87;7.32;;;;;;;24.73;57.13;101534.22;4420952;32;20988;-73
2021/08/12 10:02:14;;;;;;;6.20;5.83;;;;;;;24.94;54.18;101525.84;4412084;32;20092;-73
2021/08/12 10:04:39;;;;;;;7.22;6.82;;;;;;;25.23;54.42;101529.16;4429362;32;20383;-74
2021/08/12 10:07:04;;;;;;;7.25;6.75;;;;;;;25.07;51.91;101527.12;4416504;32;20154;-74
2021/08/12 10:09:39;;;;;;;6.93;6.32;;;;;;;25.05;52.74;101521.09;4423119;32;20075;-74
2021/08/12 10:12:04;;;;;;;6.57;6.10;;;;;;;24.64;52.12;101493.03;4405314;32;20065;-74
2021/08/12 10:14:29;;;;;;;7.18;6.68;;;;;;;24.95;51.68;101520.31;4407035;32;20059;-73
2021/08/12 10:16:55;;;;;;;7.40;6.85;;;;;;;24.95;53.64;101523.00;4424467;32;20064;-73
2021/08/12 10:19:20;;;;;;;7.28;6.65;;;;;;;24.36;54.87;101529.78;4411131;32;20201;-74
2021/08/12 10:21:46;;;;;;;8.38;7.78;;;;;;;24.08;56.48;101535.97;4424707;32;20083;-70
2021/08/12 10:24:11;;;;;;;6.07;5.70;;;;;;;24.59;55.25;101541.78;4434555;32;20625;-73
2021/08/12 10:26:36;;;;;;;8.23;7.62;;;;;;;25.00;55.21;101538.69;4440307;32;20078;-73
2021/08/12 10:29:04;;;;;;;7.22;6.68;;;;;;;25.40;54.38;101532.81;4417729;32;20073;-74
2021/08/12 10:31:29;;;;;;;6.80;6.30;;;;;;;25.82;52.80;101525.84;4420618;32;20983;-74
2021/08/12 10:33:57;;;;;;;6.43;6.10;;;;;;;25.92;52.35;101529.31;4418729;32;20313;-73
2021/08/12 10:36:23;;;;;;;7.28;6.68;;;;;;;25.69;51.89;101523.59;4434405;32;20594;-74
2021/08/12 10:38:48;;;;;;;7.05;6.55;;;;;;;25.70;52.93;101519.91;4419069;32;20078;-74
2021/08/12 10:41:15;;;;;;;7.25;6.82;;;;;;;25.99;51.39;101516.03;4420215;32;20518;-73
2021/08/12 10:43:40;;;;;;;8.80;8.25;;;;;;;26.06;50.17;101522.47;4402608;32;20077;-72
2021/08/12 10:46:06;;;;;;;7.37;6.80;;;;;;;26.23;50.56;101505.38;4408947;32;20064;-73
2021/08/12 10:48:32;;;;;;;6.90;6.40;;;;;;;26.66;49.63;101505.31;4408694;32;20517;-74
2021/08/12 10:51:01;;;;;;;6.28;5.97;;;;;;;26.80;47.07;101502.00;4405443;32;20072;-74
2021/08/12 10:53:27;;;;;;;6.90;6.50;;;;;;;26.77;48.69;101513.09;4428136;32;20080;-74
2021/08/12 10:55:52;;;;;;;8.43;7.85;;;;;;;27.03;47.87;101502.16;4419492;32;20423;-74
2021/08/12 10:58:18;;;;;;;6.93;6.43;;;;;;;27.18;48.07;101514.94;4430193;32;20198;-73
2021/08/12 11:00:53;;;;;;;8.33;7.87;;;;;;;26.87;49.18;101476.06;4436038;32;20069;-74
2021/08/12 11:03:34;;;;;;;7.15;6.40;;;;;;;25.74;46.73;101367.16;4421948;32;20229;-75
2021/08/12 11:06:05;;;;;;;6.53;6.12;;;;;;;26.82;48.38;101499.97;4425159;32;20851;-73
2021/08/12 11:08:57;;;;;;;6.68;6.28;;;;;;;26.17;48.65;101497.94;4431835;32;20198;-72
2021/08/12 11:11:25;;;;;;;7.22;6.53;;;;;;;25.56;51.11;101494.47;4426241;32;20205;-73
2021/08/12 11:13:51;;;;;;;8.50;8.00;;;;;;;25.75;50.72;101487.16;4430135;32;20072;-73
2021/08/12 11:16:17;;;;;;;6.80;6.40;;;;;;;26.09;50.25;101489.03;4429145;32;20137;-74
2021/08/12 11:18:46;;;;;;;7.62;7.12;;;;;;;26.21;50.57;101496.62;4407374;32;20638;-74
2021/08/12 11:21:29;;;;;;;6.80;6.30;;;;;;;26.25;51.15;101494.44;4420420;32;20207;-74
2021/08/12 11:23:58;;;;;;;8.48;7.87;;;;;;;26.51;50.29;101497.03;4418899;32;20206;-73
2021/08/12 11:26:24;;;;;;;6.62;6.22;;;;;;;26.60;49.20;101492.53;4417929;32;20181;-74